Flight Track Log - Related Links

Times and Time Zones

All times are in EDT time to prevent confusion due to time zone crossing. See the UAL1402 flight status page for this flight to view local times or setup timezone preferences in your user account.

Time Position Orientation Groundspeed Altitude Reporting Facility
EDT Latitude Longitude Course Direction KTS MPH feet Rate Location/Type
Thu 07:41:11 AM 42.0500 -87.8667 351° North 193 222 3,600  Level Chicago TRACON
Thu 07:41:43 AM 42.0617 -87.8636 11° North 202 232 4,500 903 Climbing Chicago Center
Thu 07:42:00 AM 42.2495 -87.9915 350° North  Level FlightAware Approximate
Thu 07:42:44 AM 42.1283 -87.8267 22° Northeast 253 291 5,000  Level Chicago Center
Thu 07:43:00 AM 42.3454 -88.0155 350° North  Level FlightAware Approximate
Thu 07:43:46 AM 42.2083 -87.7842 21° North 260 299 5,000  Level Chicago Center
Thu 07:44:00 AM 42.4382 -88.0543 352° North  Level FlightAware Approximate
Thu 07:44:47 AM 42.2800 -87.7733 North 266 306 6,100  Level Chicago Center
Thu 07:45:00 AM 42.5308 -88.0865 351° North  Level FlightAware Approximate
Thu 07:45:49 AM 42.3569 -87.7725 360° North 274 315 10,100  Level Chicago Center
Thu 07:46:00 AM 42.6162 -88.1054 351° North  Level FlightAware Approximate
Thu 07:46:50 AM 42.4361 -87.7808 356° North 286 329 13,800  Level Chicago Center
Thu 07:47:52 AM 42.5150 -87.8403 331° Northwest 330 380 15,900 2,049 Climbing Chicago Center
Thu 07:48:53 AM 42.6014 -87.9028 332° Northwest 350 403 18,000 1,024 Climbing Chicago Center
Thu 07:49:55 AM 42.6878 -87.9675 331° Northwest 353 406 18,000  Level Chicago Center
Thu 07:50:57 AM 42.7592 -88.0561 318° Northwest 347 399 18,000  Level Chicago Center
Thu 07:51:58 AM 42.8386 -88.1681 314° West 350 403 18,000  Level Chicago Center
Thu 07:53:00 AM 42.9067 -88.2639 314° West 351 404 18,000  Level Chicago Center
Thu 07:54:02 AM 42.9758 -88.3600 315° West 353 406 18,000 829 Level Chicago Center
Thu 07:55:03 AM 43.0436 -88.4569 314° West 350 403 19,700 976 Climbing Chicago Center
Thu 07:56:05 AM 43.1131 -88.5558 314° West 356 410 20,000 146 Climbing Chicago Center
Thu 07:57:06 AM 43.1825 -88.6542 314° West 356 410 20,000  Level Chicago Center
Thu 07:58:08 AM 43.2522 -88.7536 314° West 357 411 20,000 581 Level Chicago Center
Thu 07:59:10 AM 43.3211 -88.8553 313° West 359 413 21,200 968 Climbing Chicago Center
Thu 08:00:12 AM 43.4053 -88.9744 314° West 369 425 22,000 387 Climbing Chicago Center
Thu 08:01:14 AM 43.4764 -89.0778 313° West 371 427 22,000  Level Chicago Center
Thu 08:02:15 AM 43.5475 -89.1806 314° West 369 425 22,000  Level Chicago Center
Thu 08:03:17 AM 43.6183 -89.2844 313° West 371 427 22,000  Level Chicago Center
Thu 08:04:19 AM 43.6900 -89.3869 314° West 370 426 22,000  Level Chicago Center
Thu 08:05:20 AM 43.7594 -89.4900 313° West 368 423 22,000  Level Chicago Center
Thu 08:06:22 AM 43.8281 -89.5931 313° West 365 420 22,000  Level Chicago Center
Thu 08:07:24 AM 43.8975 -89.6953 313° West 363 418 22,000  Level Chicago Center
Thu 08:08:25 AM 43.9778 -89.8128 314° West 360 414 22,000  Level Chicago Center
Thu 08:09:27 AM 44.0444 -89.9144 312° West 358 412 22,000  Level Chicago Center
Thu 08:09:55 AM 44.0781 -89.9658 312° West 359 413 22,000  Level Minneapolis Center
Thu 08:10:57 AM 44.1392 -90.0744 308° West 357 411 22,000  Level Minneapolis Center
Thu 08:11:58 AM 44.1997 -90.1864 307° West 361 415 22,000  Level Minneapolis Center
Thu 08:12:59 AM 44.2617 -90.2969 308° West 362 417 22,000  Level Minneapolis Center
Thu 08:14:01 AM 44.3225 -90.4083 307° West 361 415 22,000  Level Minneapolis Center
Thu 08:15:02 AM 44.3831 -90.5236 306° West 367 422 22,000  Level Minneapolis Center
Thu 08:16:03 AM 44.4356 -90.6144 309° West 361 415 22,000  Level Minneapolis Center
Thu 08:17:04 AM 44.4828 -90.7481 296° West 380 437 22,000  Level Minneapolis Center
Thu 08:18:06 AM 44.5417 -90.9017 298° West 384 442 22,000  Level Minneapolis Center
Thu 08:19:08 AM 44.5975 -91.0550 297° West 379 436 22,000  Level Minneapolis Center
Thu 08:20:09 AM 44.6472 -91.1858 298° West 380 437 22,000  Level Minneapolis Center
Thu 08:21:11 AM 44.6950 -91.3161 297° West 379 436 22,000  Level Minneapolis Center
Thu 08:22:12 AM 44.7422 -91.4478 297° West 378 435 22,000  Level Minneapolis Center
Thu 08:23:26 AM 44.7986 -91.6031 297° West 377 434 22,000 -89 Level Minneapolis Center
Thu 08:24:27 AM 44.8464 -91.7314 298° West 374 430 21,800 -1,268 Descending Minneapolis Center
Thu 08:25:29 AM 44.8919 -91.8581 297° West 370 426 19,400 -2,439 Descending Minneapolis Center
Thu 08:26:30 AM 44.9461 -92.0019 298° West 355 409 16,800 -2,537 Descending Minneapolis Center
Thu 08:27:32 AM 44.9892 -92.1236 297° West 350 403 14,200 -2,468 Descending Minneapolis Center
Thu 08:28:34 AM 45.0322 -92.2419 297° West 344 396 11,700 -1,422 Descending Minneapolis Center
Thu 08:29:47 AM 45.0319 -92.4000 270° West 353 406 11,000 -356 Descending Minneapolis Center
Thu 08:30:49 AM 45.0097 -92.5364 257° West 357 411 10,900 -290 Descending Minneapolis Center
Thu 08:31:51 AM 44.9664 -92.6472 241° Southwest 320 368 10,400 -1,073 Descending Minneapolis Center
Thu 08:32:52 AM 44.9003 -92.7547 229° Southwest 303 349 8,700 -1,610 Descending Minneapolis Center
Thu 08:33:54 AM 44.8411 -92.8364 224° Southwest 298 343 7,100 -1,610 Descending Minneapolis Center
Thu 08:34:55 AM 44.8061 -92.9306 242° Southwest 287 330 5,400 -1,707 Descending Minneapolis Center
Thu 08:35:57 AM 44.8150 -93.0264 277° West 248 285 3,600 -1,742 Descending Minneapolis Center

Login

Don't have an account? Register now (free) for customized features, flight alerts, and more!